Time;durP1;ratioP1;P1;durP2;ratioP2;P2;SDS_P1;SDS_P2;PMS_P1;PMS_P2;Temp;Humidity;BMP_temperature;BMP_pressure;BME280_temperature;BME280_humidity;BME280_pressure;Samples;Min_cycle;Max_cycle;Signal;HPM_P1;HPM_P2
2022/01/03 00:01:18;;;;;;;26.85;17.58;;;205.40;2252.80;;;;;;5029726;28;20057;-61
2022/01/03 00:03:44;;;;;;;11.15;7.63;;;205.20;2252.80;;;;;;5029877;28;20040;-60
2022/01/03 00:06:10;;;;;;;19.50;14.60;;;205.20;2252.80;;;;;;5029747;28;20045;-60
2022/01/03 00:08:39;;;;;;;16.20;9.57;;;205.20;2252.80;;;;;;5029845;28;20468;-60
2022/01/03 00:11:04;;;;;;;20.10;14.75;;;205.00;2252.80;;;;;;5029793;28;20052;-61
2022/01/03 00:13:30;;;;;;;27.23;20.98;;;205.10;2252.80;;;;;;5029542;28;20030;-60
2022/01/03 00:15:56;;;;;;;28.08;20.55;;;205.20;2252.80;;;;;;5029962;28;20587;-60
2022/01/03 00:18:23;;;;;;;18.33;14.40;;;205.20;2252.80;;;;;;5029746;28;20124;-59
2022/01/03 00:21:11;;;;;;;16.17;9.70;;;205.20;2252.80;;;;;;5029577;28;20041;-60
2022/01/03 00:23:40;;;;;;;15.27;9.00;;;205.20;2252.80;;;;;;5029646;28;20026;-60
2022/01/03 00:26:08;;;;;;;15.48;11.60;;;205.40;2252.80;;;;;;5029789;28;20030;-59
2022/01/03 00:28:38;;;;;;;9.57;6.50;;;205.50;2252.80;;;;;;5029644;28;20518;-59
2022/01/03 00:31:05;;;;;;;16.83;10.55;;;205.50;2252.80;;;;;;5029485;28;20069;-60
2022/01/03 00:33:32;;;;;;;15.23;7.63;;;205.50;2252.80;;;;;;5029753;28;20040;-59
2022/01/03 00:36:01;;;;;;;11.98;6.75;;;205.50;2252.80;;;;;;5029633;28;20083;-60
2022/01/03 00:38:28;;;;;;;11.77;6.93;;;205.50;2252.80;;;;;;5029573;28;20057;-60
2022/01/03 00:40:55;;;;;;;30.42;19.42;;;205.50;2252.80;;;;;;5029683;28;20021;-60
2022/01/03 00:43:21;;;;;;;22.98;14.45;;;205.50;2252.80;;;;;;5033048;28;20494;-59
2022/01/03 00:45:50;;;;;;;55.00;31.63;;;205.50;2252.80;;;;;;5033134;28;20464;-60
2022/01/03 00:48:16;;;;;;;133.32;86.38;;;205.20;2252.80;;;;;;5033208;28;20070;-58
2022/01/03 00:50:41;;;;;;;61.40;40.35;;;179.90;2252.80;;;;;;5033019;28;20042;-59
2022/01/03 00:53:07;;;;;;;76.40;43.95;;;179.70;2252.80;;;;;;5033112;28;20021;-60
2022/01/03 00:55:33;;;;;;;73.82;49.35;;;179.80;2252.80;;;;;;5032056;28;20052;-59
2022/01/03 00:58:02;;;;;;;64.70;40.53;;;179.90;2252.80;;;;;;5032927;28;20025;-59
2022/01/03 01:00:35;;;;;;;114.10;68.47;;;180.10;2252.80;;;;;;5032564;28;20034;-60
2022/01/03 01:03:10;;;;;;;82.70;54.30;;;180.00;2252.80;;;;;;5032970;28;20116;-59
2022/01/03 01:05:40;;;;;;;40.60;26.23;;;180.00;2252.80;;;;;;5032834;28;20030;-60
2022/01/03 01:08:07;;;;;;;49.40;35.35;;;180.10;2252.80;;;;;;5032538;28;20033;-59
2022/01/03 01:10:35;;;;;;;44.67;32.15;;;180.10;2252.80;;;;;;5032851;28;20041;-60
2022/01/03 01:13:04;;;;;;;80.43;56.25;;;204.80;2252.80;;;;;;5032729;28;20026;-59
2022/01/03 01:15:30;;;;;;;63.53;42.40;;;204.80;2252.80;;;;;;5032435;28;20117;-60
2022/01/03 01:17:57;;;;;;;38.47;24.25;;;204.90;2252.80;;;;;;5032719;28;20053;-59
2022/01/03 01:20:24;;;;;;;39.10;23.55;;;205.00;2252.80;;;;;;5032646;28;20026;-59
2022/01/03 01:22:51;;;;;;;29.48;20.23;;;205.00;2252.80;;;;;;5032519;28;20103;-59
2022/01/03 01:27:50;;;;;;;20.20;12.20;;;204.80;2252.80;;;;;;5032475;28;20075;-59
2022/01/03 01:30:18;;;;;;;19.20;13.20;;;180.00;2252.80;;;;;;5032072;28;20053;-59
2022/01/03 01:32:55;;;;;;;16.17;12.32;;;179.80;2252.80;;;;;;5032627;28;20029;-59
2022/01/03 01:35:23;;;;;;;50.08;33.72;;;179.50;2252.80;;;;;;5032022;28;20484;-59
2022/01/03 01:37:53;;;;;;;25.42;17.10;;;179.50;2252.80;;;;;;5032175;28;20025;-59
2022/01/03 01:40:22;;;;;;;75.13;41.80;;;179.40;2252.80;;;;;;5032145;28;20033;-60
2022/01/03 01:42:48;;;;;;;47.72;27.55;;;179.60;2252.80;;;;;;5032013;28;20049;-59
2022/01/03 01:45:18;;;;;;;104.65;62.58;;;179.80;2252.80;;;;;;5032340;28;20027;-60
2022/01/03 01:47:48;;;;;;;49.40;28.20;;;180.00;2252.80;;;;;;5032013;28;20024;-59
2022/01/03 01:50:15;;;;;;;86.28;48.38;;;180.10;2252.80;;;;;;5031796;28;20172;-60
2022/01/03 01:52:44;;;;;;;14.00;8.45;;;180.10;2252.80;;;;;;5031520;28;20046;-60
2022/01/03 01:55:12;;;;;;;15.07;9.27;;;180.10;2252.80;;;;;;5031667;28;20109;-60
2022/01/03 01:57:49;;;;;;;32.03;19.88;;;179.90;2252.80;;;;;;5031814;28;20030;-60
2022/01/03 02:00:16;;;;;;;15.82;9.90;;;179.80;2252.80;;;;;;5031643;28;20131;-60
2022/01/03 02:02:57;;;;;;;30.10;18.85;;;179.70;2252.80;;;;;;5031729;28;20503;-60
2022/01/03 02:05:34;;;;;;;12.82;8.90;;;179.70;2252.80;;;;;;5031682;28;20087;-60
2022/01/03 02:08:16;;;;;;;10.80;5.07;;;179.70;2252.80;;;;;;5031397;28;20030;-61
2022/01/03 02:11:00;;;;;;;25.25;14.85;;;179.70;2252.80;;;;;;5031675;28;20458;-60
2022/01/03 02:13:27;;;;;;;34.08;18.30;;;179.70;2252.80;;;;;;5031822;28;20032;-60
2022/01/03 02:16:03;;;;;;;22.48;11.80;;;179.80;2252.80;;;;;;5031845;28;20037;-60
2022/01/03 02:18:30;;;;;;;38.45;22.15;;;180.00;2252.80;;;;;;5031616;28;20057;-58
2022/01/03 02:20:57;;;;;;;48.40;30.13;;;180.00;2252.80;;;;;;5031428;28;20037;-58
2022/01/03 02:23:22;;;;;;;20.88;12.77;;;180.10;2252.80;;;;;;5031516;28;20025;-59
2022/01/03 02:25:48;;;;;;;33.38;19.45;;;204.90;2252.80;;;;;;5031325;28;20134;-60
2022/01/03 02:28:16;;;;;;;29.77;17.83;;;204.90;2252.80;;;;;;5031264;28;20026;-59
2022/01/03 02:30:42;;;;;;;29.65;15.18;;;204.90;2252.80;;;;;;5031217;28;20068;-60
2022/01/03 02:33:08;;;;;;;17.02;8.77;;;180.10;2252.80;;;;;;5031100;28;20044;-59
2022/01/03 02:35:39;;;;;;;26.98;16.23;;;180.00;2252.80;;;;;;5031433;28;20029;-59
2022/01/03 02:38:05;;;;;;;23.10;13.70;;;204.80;2252.80;;;;;;5031377;28;20423;-59
2022/01/03 02:40:31;;;;;;;17.98;12.07;;;204.90;2252.80;;;;;;5031029;28;20038;-59
2022/01/03 02:42:57;;;;;;;25.35;13.73;;;204.90;2252.80;;;;;;5030852;28;20025;-60
2022/01/03 02:45:25;;;;;;;17.38;11.65;;;204.90;2252.80;;;;;;5030957;28;20392;-61
2022/01/03 02:48:00;;;;;;;19.35;12.30;;;204.90;2252.80;;;;;;5030807;28;20029;-59
2022/01/03 02:50:29;;;;;;;14.75;9.57;;;204.90;2252.80;;;;;;5031015;28;20099;-59
2022/01/03 02:52:54;;;;;;;27.80;13.70;;;204.90;2252.80;;;;;;5031047;28;20025;-59
2022/01/03 02:55:21;;;;;;;29.73;15.38;;;204.80;2252.80;;;;;;5030655;28;20369;-59
2022/01/03 02:57:52;;;;;;;36.00;22.02;;;204.80;2252.80;;;;;;5030704;28;20041;-59
2022/01/03 03:00:30;;;;;;;43.15;28.77;;;204.80;2252.80;;;;;;5030429;28;20068;-60
2022/01/03 03:02:56;;;;;;;39.33;27.33;;;180.10;2252.80;;;;;;5030637;28;20095;-60
2022/01/03 03:05:22;;;;;;;38.33;26.15;;;180.10;2252.80;;;;;;5030752;28;20383;-59
2022/01/03 03:07:49;;;;;;;36.00;21.75;;;180.00;2252.80;;;;;;5030428;28;20030;-59
2022/01/03 03:10:18;;;;;;;14.80;8.68;;;180.00;2252.80;;;;;;5030607;28;20670;-59
2022/01/03 03:12:44;;;;;;;17.85;11.18;;;179.90;2252.80;;;;;;5030422;28;20111;-59
2022/01/03 03:15:12;;;;;;;13.65;7.68;;;179.60;2252.80;;;;;;5030411;28;20037;-60
2022/01/03 03:17:39;;;;;;;11.05;5.68;;;179.70;2252.80;;;;;;5030613;28;20029;-60
2022/01/03 03:20:09;;;;;;;19.08;11.32;;;179.80;2252.80;;;;;;5030464;28;20167;-59
2022/01/03 03:22:36;;;;;;;8.32;4.63;;;179.80;2252.80;;;;;;5030424;28;20112;-59
2022/01/03 03:25:05;;;;;;;10.68;4.80;;;179.70;2252.80;;;;;;5030379;28;20029;-59
2022/01/03 03:27:31;;;;;;;31.13;16.73;;;179.70;2252.80;;;;;;5030120;28;20100;-59
2022/01/03 03:29:57;;;;;;;62.45;35.67;;;179.70;2252.80;;;;;;5029904;28;20045;-60
2022/01/03 03:32:26;;;;;;;37.75;20.90;;;179.70;2252.80;;;;;;5030557;28;20108;-59
2022/01/03 03:34:52;;;;;;;30.15;20.00;;;179.70;2252.80;;;;;;5030300;28;20040;-59
2022/01/03 03:37:18;;;;;;;26.90;17.55;;;179.80;2252.80;;;;;;5030116;28;20029;-60
2022/01/03 03:39:44;;;;;;;26.10;15.40;;;179.80;2252.80;;;;;;5030304;28;20491;-59
2022/01/03 03:42:11;;;;;;;20.80;8.93;;;179.80;2252.80;;;;;;5030073;28;20033;-60
2022/01/03 03:44:38;;;;;;;10.20;5.35;;;179.60;2252.80;;;;;;5030341;28;20039;-59
2022/01/03 03:47:05;;;;;;;11.15;5.95;;;179.50;2252.80;;;;;;5029140;28;20371;-61
2022/01/03 03:49:32;;;;;;;36.03;20.38;;;179.40;2252.80;;;;;;5029969;28;20029;-60
2022/01/03 03:51:59;;;;;;;12.52;7.00;;;179.40;2252.80;;;;;;5030078;28;20047;-60
2022/01/03 03:54:25;;;;;;;9.75;6.57;;;179.40;2252.80;;;;;;5030090;28;20376;-60
2022/01/03 03:56:50;;;;;;;8.95;6.07;;;179.50;2252.80;;;;;;5029755;28;20030;-60
2022/01/03 03:59:16;;;;;;;11.15;7.05;;;179.50;2252.80;;;;;;5029910;28;20036;-59
2022/01/03 04:01:42;;;;;;;14.23;9.45;;;179.60;2252.80;;;;;;5029770;28;20057;-59
2022/01/03 04:04:08;;;;;;;11.65;7.47;;;179.50;2252.80;;;;;;5029907;28;20038;-59
2022/01/03 04:06:33;;;;;;;13.00;9.07;;;179.60;2252.80;;;;;;5030057;28;20026;-60
2022/01/03 04:08:59;;;;;;;11.60;7.43;;;179.70;2252.80;;;;;;5029860;28;20037;-59
2022/01/03 04:11:25;;;;;;;21.52;13.98;;;179.70;2252.80;;;;;;5029818;28;20116;-60
2022/01/03 04:13:50;;;;;;;26.17;16.15;;;179.80;2252.80;;;;;;5029645;28;20021;-60
2022/01/03 04:16:16;;;;;;;24.52;15.32;;;179.80;2252.80;;;;;;5030357;28;20471;-60
2022/01/03 04:18:42;;;;;;;18.45;12.90;;;179.90;2252.80;;;;;;5033908;28;20027;-60
2022/01/03 04:21:08;;;;;;;15.88;9.25;;;179.90;2252.80;;;;;;5033524;28;20040;-59
2022/01/03 04:23:34;;;;;;;21.95;13.63;;;179.90;2252.80;;;;;;5033651;28;20022;-59
2022/01/03 04:26:00;;;;;;;22.83;13.90;;;179.80;2252.80;;;;;;5033457;28;20087;-60
2022/01/03 04:28:25;;;;;;;26.92;16.10;;;179.80;2252.80;;;;;;5033554;28;20104;-60
2022/01/03 04:30:51;;;;;;;21.30;12.30;;;179.80;2252.80;;;;;;5033069;28;20056;-59
2022/01/03 04:33:17;;;;;;;18.08;10.77;;;179.80;2252.80;;;;;;5033268;28;20025;-59
2022/01/03 04:35:43;;;;;;;17.83;11.57;;;179.70;2252.80;;;;;;5033420;28;20022;-59
2022/01/03 04:38:10;;;;;;;16.52;11.38;;;179.70;2252.80;;;;;;5033450;28;20091;-60
2022/01/03 04:40:36;;;;;;;9.60;6.80;;;179.60;2252.80;;;;;;5033600;28;20024;-59
2022/01/03 04:43:02;;;;;;;9.50;5.18;;;179.50;2252.80;;;;;;5033433;28;20696;-59
2022/01/03 04:45:28;;;;;;;15.02;9.18;;;179.60;2252.80;;;;;;5032981;28;20061;-60
2022/01/03 04:47:54;;;;;;;11.07;5.93;;;179.60;2252.80;;;;;;5033532;28;20056;-60
2022/01/03 04:50:20;;;;;;;20.95;13.82;;;179.70;2252.80;;;;;;5032926;28;20482;-60
2022/01/03 04:52:45;;;;;;;23.15;11.60;;;179.70;2252.80;;;;;;5033317;28;20068;-59
2022/01/03 04:55:11;;;;;;;26.23;17.90;;;179.70;2252.80;;;;;;5033059;28;20487;-59
2022/01/03 04:57:37;;;;;;;7.80;5.05;;;179.70;2252.80;;;;;;5033101;28;20472;-59
2022/01/03 05:00:07;;;;;;;9.88;6.78;;;179.70;2252.80;;;;;;5032744;28;20376;-58
2022/01/03 05:02:36;;;;;;;8.75;6.35;;;179.70;2252.80;;;;;;5032806;28;20050;-59
2022/01/03 05:05:02;;;;;;;9.35;5.70;;;179.80;2252.80;;;;;;5032856;28;20025;-58
2022/01/03 05:07:27;;;;;;;12.32;7.82;;;179.80;2252.80;;;;;;5032779;28;20025;-59
2022/01/03 05:09:53;;;;;;;17.48;10.57;;;179.80;2252.80;;;;;;5032739;28;20511;-59
2022/01/03 05:12:19;;;;;;;8.93;5.65;;;179.70;2252.80;;;;;;5032585;28;20024;-58
2022/01/03 05:14:44;;;;;;;9.18;5.55;;;179.80;2252.80;;;;;;5032702;28;20026;-58
2022/01/03 05:17:10;;;;;;;7.28;4.72;;;179.70;2252.80;;;;;;5032539;28;20029;-58
2022/01/03 05:19:37;;;;;;;15.18;8.75;;;179.70;2252.80;;;;;;5032612;28;20033;-58
2022/01/03 05:22:03;;;;;;;10.65;6.85;;;179.70;2252.80;;;;;;5032582;28;20502;-58
2022/01/03 05:24:29;;;;;;;37.25;26.83;;;179.60;2252.80;;;;;;5032463;28;20108;-59
2022/01/03 05:26:56;;;;;;;51.53;29.70;;;179.70;2252.80;;;;;;5032656;28;20424;-58
2022/01/03 05:29:22;;;;;;;28.17;18.38;;;179.90;2252.80;;;;;;5030961;28;20026;-58
2022/01/03 05:31:48;;;;;;;36.88;22.02;;;179.90;2252.80;;;;;;5032180;28;20464;-57
2022/01/03 05:34:14;;;;;;;30.75;21.25;;;179.90;2252.80;;;;;;5032335;28;20029;-59
2022/01/03 05:36:40;;;;;;;45.78;26.63;;;179.90;2252.80;;;;;;5032206;28;20041;-58
2022/01/03 05:39:06;;;;;;;34.75;22.42;;;179.90;2252.80;;;;;;5032273;28;20032;-59
2022/01/03 05:41:32;;;;;;;9.02;5.82;;;179.90;2252.80;;;;;;5032415;28;20506;-58
2022/01/03 05:43:58;;;;;;;15.32;9.07;;;179.80;2252.80;;;;;;5031914;28;20030;-59
2022/01/03 05:46:24;;;;;;;12.82;7.15;;;179.70;2252.80;;;;;;5032105;28;20064;-59
2022/01/03 05:48:50;;;;;;;14.13;9.80;;;179.60;2252.80;;;;;;5032111;28;20114;-58
2022/01/03 05:51:16;;;;;;;25.65;13.77;;;179.70;2252.80;;;;;;5031709;28;20050;-59
2022/01/03 05:53:42;;;;;;;45.78;27.20;;;179.70;2252.80;;;;;;5032199;28;20022;-58
2022/01/03 05:56:08;;;;;;;46.42;29.33;;;179.70;2252.80;;;;;;5031922;28;20044;-59
2022/01/03 05:58:34;;;;;;;45.33;29.73;;;179.70;2252.80;;;;;;5031936;28;20053;-59
2022/01/03 06:01:01;;;;;;;28.70;18.52;;;179.70;2252.80;;;;;;5031417;28;20069;-59
2022/01/03 06:03:29;;;;;;;31.88;19.40;;;179.70;2252.80;;;;;;5031513;28;20091;-59
2022/01/03 06:08:21;;;;;;;27.55;14.65;;;179.60;2252.80;;;;;;5031889;28;20056;-59
2022/01/03 06:10:47;;;;;;;26.88;16.02;;;179.60;2252.80;;;;;;5031327;28;20038;-59
2022/01/03 06:13:14;;;;;;;35.00;17.60;;;179.60;2252.80;;;;;;5031653;28;20021;-59
2022/01/03 06:15:41;;;;;;;35.22;22.95;;;179.50;2252.80;;;;;;5031401;28;20029;-59
2022/01/03 06:18:11;;;;;;;42.80;25.98;;;179.40;2252.80;;;;;;5031248;28;20022;-59
2022/01/03 06:20:41;;;;;;;42.03;23.75;;;179.40;2252.80;;;;;;5031293;28;20108;-60
2022/01/03 06:23:09;;;;;;;36.58;22.85;;;179.40;2252.80;;;;;;5031408;28;20029;-59
2022/01/03 06:25:36;;;;;;;31.73;18.75;;;179.50;2252.80;;;;;;5031399;28;20025;-59
2022/01/03 06:28:07;;;;;;;27.50;18.85;;;179.60;2252.80;;;;;;5031215;28;20071;-59
2022/01/03 06:30:34;;;;;;;23.58;15.05;;;179.60;2252.80;;;;;;5031314;28;20045;-59
2022/01/03 06:32:59;;;;;;;89.80;49.92;;;179.70;2252.80;;;;;;5031208;28;20026;-59
2022/01/03 06:35:25;;;;;;;30.67;17.90;;;179.70;2252.80;;;;;;5031207;28;20025;-58
2022/01/03 06:37:51;;;;;;;21.90;15.57;;;179.80;2252.80;;;;;;5031283;28;20033;-59
2022/01/03 06:40:17;;;;;;;25.10;16.55;;;179.80;2252.80;;;;;;5030754;28;20025;-60
2022/01/03 06:42:43;;;;;;;37.97;20.92;;;179.90;2252.80;;;;;;5031293;28;20032;-59
2022/01/03 06:45:09;;;;;;;37.53;22.00;;;180.00;2252.80;;;;;;5031684;28;20037;-59
2022/01/03 06:47:35;;;;;;;50.47;33.72;;;180.10;2252.80;;;;;;5031612;28;20075;-59
2022/01/03 06:50:01;;;;;;;44.30;27.77;;;180.10;2252.80;;;;;;5031129;28;20438;-58
2022/01/03 06:52:27;;;;;;;40.45;27.70;;;204.80;2252.80;;;;;;5030859;28;20093;-59
2022/01/03 06:54:53;;;;;;;38.05;23.50;;;204.90;2252.80;;;;;;5031043;28;20029;-58
2022/01/03 06:57:18;;;;;;;25.25;14.13;;;204.80;2252.80;;;;;;5030691;28;20036;-60
2022/01/03 06:59:44;;;;;;;47.30;35.22;;;204.90;2252.80;;;;;;5030834;28;20064;-59
2022/01/03 07:02:10;;;;;;;57.92;38.70;;;204.80;2252.80;;;;;;5030454;28;20478;-59
2022/01/03 07:04:35;;;;;;;54.10;42.72;;;204.90;2252.80;;;;;;5030919;28;20492;-59
2022/01/03 07:07:01;;;;;;;50.15;32.33;;;204.90;2252.80;;;;;;5029645;28;20535;-59
2022/01/03 07:09:27;;;;;;;45.33;31.48;;;205.00;2252.80;;;;;;5030543;28;20029;-59
2022/01/03 07:11:53;;;;;;;8.60;6.05;;;204.90;2252.80;;;;;;5030565;28;20034;-59
2022/01/03 07:19:36;;;;;;;41.25;26.55;;;204.90;2252.80;;;;;;5030581;28;20078;-60
2022/01/03 07:22:05;;;;;;;44.22;27.02;;;204.90;2252.80;;;;;;5030436;28;20037;-58
2022/01/03 07:24:37;;;;;;;29.48;19.77;;;205.00;2252.80;;;;;;5030208;28;20071;-59
2022/01/03 07:27:04;;;;;;;137.55;75.82;;;204.90;2252.80;;;;;;5030249;28;20029;-58
2022/01/03 07:29:30;;;;;;;51.15;31.60;;;205.30;2252.80;;;;;;5030076;28;20042;-58
2022/01/03 07:31:56;;;;;;;20.88;13.60;;;205.40;2252.80;;;;;;5030158;28;20040;-58
2022/01/03 07:34:22;;;;;;;15.15;9.07;;;205.60;2252.80;;;;;;5030481;28;20026;-58
2022/01/03 07:36:47;;;;;;;15.07;9.90;;;205.70;2252.80;;;;;;5030157;28;20025;-59
2022/01/03 07:39:13;;;;;;;13.32;8.02;;;230.40;2252.80;;;;;;5030333;28;20058;-59
2022/01/03 07:41:39;;;;;;;12.32;7.88;;;230.50;2252.80;;;;;;5030060;28;20026;-64
2022/01/03 07:44:04;;;;;;;12.48;7.88;;;230.80;2252.80;;;;;;5029247;28;20029;-59
2022/01/03 07:46:30;;;;;;;20.17;11.45;;;230.90;2252.80;;;;;;5030027;28;20077;-58
2022/01/03 07:48:56;;;;;;;27.65;17.25;;;231.00;2252.80;;;;;;5030216;28;20025;-59
2022/01/03 07:51:22;;;;;;;26.50;18.33;;;231.10;2252.80;;;;;;5030705;28;20048;-59
2022/01/03 07:53:47;;;;;;;40.50;28.23;;;230.90;2252.80;;;;;;5034055;28;20029;-59
2022/01/03 07:56:13;;;;;;;34.05;23.02;;;231.00;2252.80;;;;;;5034122;28;20035;-59
2022/01/03 07:58:39;;;;;;;25.83;18.88;;;231.20;2252.80;;;;;;5034064;28;20061;-59
2022/01/03 08:01:05;;;;;;;25.80;18.17;;;231.30;2252.80;;;;;;5034063;28;20060;-62
2022/01/03 08:03:31;;;;;;;20.20;15.00;;;231.30;2252.80;;;;;;5034041;28;20484;-60
2022/01/03 08:05:57;;;;;;;13.45;9.73;;;231.20;2252.80;;;;;;5033668;28;20032;-67
2022/01/03 08:08:23;;;;;;;14.57;9.40;;;231.30;2252.80;;;;;;5034021;28;20034;-64
2022/01/03 08:10:49;;;;;;;15.95;10.55;;;231.20;2252.80;;;;;;5033602;28;20029;-63
2022/01/03 08:13:16;;;;;;;19.63;12.63;;;231.20;2252.80;;;;;;5033870;28;20472;-66
2022/01/03 08:15:42;;;;;;;17.38;10.95;;;256.10;2252.80;;;;;;5034032;28;20029;-62
2022/01/03 08:18:08;;;;;;;37.55;25.10;;;231.30;2252.80;;;;;;5033674;28;20025;-62
2022/01/03 08:20:34;;;;;;;136.57;92.72;;;256.30;2252.80;;;;;;5033735;28;20032;-58
2022/01/03 08:23:01;;;;;;;144.45;101.18;;;256.40;2252.80;;;;;;5033412;28;20475;-59
2022/01/03 08:25:27;;;;;;;102.30;66.93;;;256.60;2252.80;;;;;;5033334;28;20468;-59
2022/01/03 08:27:53;;;;;;;86.57;60.38;;;256.60;2252.80;;;;;;5032358;28;20033;-58
2022/01/03 08:30:19;;;;;;;61.38;35.63;;;256.60;2252.80;;;;;;5033113;28;20061;-58
2022/01/03 08:32:45;;;;;;;122.90;73.78;;;256.60;2252.80;;;;;;5033554;28;20435;-58
2022/01/03 08:35:11;;;;;;;156.15;112.18;;;256.70;2252.80;;;;;;5033267;28;20506;-57
2022/01/03 08:37:37;;;;;;;39.83;28.65;;;256.70;2252.80;;;;;;5033149;28;20026;-58
2022/01/03 08:40:06;;;;;;;24.67;17.38;;;256.60;2252.80;;;;;;5033381;28;20021;-58
2022/01/03 08:42:33;;;;;;;28.83;21.20;;;256.50;2252.80;;;;;;5033108;28;20036;-58
2022/01/03 08:44:59;;;;;;;22.88;13.50;;;256.50;2252.80;;;;;;5032962;28;20030;-57
2022/01/03 08:47:25;;;;;;;18.33;13.13;;;256.60;2252.80;;;;;;5033062;28;20029;-57
2022/01/03 08:49:51;;;;;;;105.35;54.85;;;256.80;2252.80;;;;;;5032994;28;20041;-58
2022/01/03 08:52:16;;;;;;;77.82;47.92;;;281.60;2278.40;;;;;;5032877;28;20022;-60
2022/01/03 08:54:42;;;;;;;93.40;52.20;;;281.90;2278.40;;;;;;5033155;28;20056;-57
2022/01/03 08:57:08;;;;;;;54.78;31.58;;;282.20;2278.40;;;;;;5033040;28;20061;-58
2022/01/03 08:59:34;;;;;;;34.60;23.30;;;307.50;2304.00;;;;;;5032975;28;20033;-58
2022/01/03 09:01:59;;;;;;;34.53;22.70;;;333.00;2201.60;;;;;;5032319;28;20103;-58
2022/01/03 09:04:25;;;;;;;35.17;23.08;;;333.60;2073.60;;;;;;5033014;28;20030;-58
2022/01/03 09:06:52;;;;;;;75.15;47.75;;;358.90;1971.20;;;;;;5032672;28;20021;-58
2022/01/03 09:09:19;;;;;;;86.95;57.88;;;359.10;1868.80;;;;;;5032713;28;20383;-58
2022/01/03 09:11:45;;;;;;;238.70;184.60;;;384.30;1843.20;;;;;;5032796;28;20032;-58
2022/01/03 09:14:11;;;;;;;333.85;263.80;;;384.60;1817.60;;;;;;5032551;28;20057;-58
2022/01/03 09:16:37;;;;;;;245.13;183.65;;;384.50;1843.20;;;;;;5032784;28;20049;-58
2022/01/03 09:19:03;;;;;;;108.38;79.00;;;384.90;1843.20;;;;;;5032795;28;20025;-58
2022/01/03 09:21:29;;;;;;;226.40;162.63;;;409.90;1817.60;;;;;;5032339;28;20025;-58
2022/01/03 09:24:17;;;;;;;106.15;80.97;;;409.90;1766.40;;;;;;5032619;28;20031;-58
2022/01/03 09:29:25;;;;;;;79.95;57.80;;;435.40;1715.20;;;;;;5032341;28;20091;-57
2022/01/03 09:31:50;;;;;;;33.05;22.10;;;435.20;1715.20;;;;;;5032313;28;20033;-58
2022/01/03 09:34:16;;;;;;;26.58;20.65;;;410.30;1740.80;;;;;;5032492;28;20028;-57
2022/01/03 09:36:42;;;;;;;23.75;18.95;;;384.90;1715.20;;;;;;5032326;28;20375;-58
2022/01/03 09:39:08;;;;;;;33.38;21.63;;;384.20;1792.00;;;;;;5032242;28;20232;-58
2022/01/03 09:41:38;;;;;;;26.77;13.60;;;359.20;1817.60;;;;;;5032265;28;20067;-57
2022/01/03 09:44:08;;;;;;;24.48;17.67;;;358.80;1868.80;;;;;;5032302;28;20033;-57
2022/01/03 09:46:43;;;;;;;34.38;23.42;;;358.70;1868.80;;;;;;5032205;28;20064;-60
2022/01/03 09:49:11;;;;;;;137.70;91.45;;;358.50;1945.60;;;;;;5032238;28;20124;-58
2022/01/03 09:51:39;;;;;;;57.25;42.35;;;358.40;1971.20;;;;;;5031813;28;20116;-58
2022/01/03 09:54:08;;;;;;;40.20;30.80;;;358.50;1996.80;;;;;;5031926;28;20372;-58
2022/01/03 09:56:36;;;;;;;55.83;39.13;;;358.60;1996.80;;;;;;5032102;28;20075;-60
2022/01/03 09:59:03;;;;;;;60.95;43.08;;;358.70;1996.80;;;;;;5031981;28;20018;-59
2022/01/03 10:01:33;;;;;;;32.20;23.45;;;358.80;1945.60;;;;;;5031347;28;20175;-58
2022/01/03 10:04:00;;;;;;;42.22;27.83;;;358.60;1945.60;;;;;;5031823;28;20025;-59
2022/01/03 10:06:25;;;;;;;110.55;82.80;;;358.80;1971.20;;;;;;5031691;28;20022;-58
2022/01/03 10:08:52;;;;;;;101.38;68.90;;;358.90;1971.20;;;;;;5031695;28;20040;-57
2022/01/03 10:11:27;;;;;;;57.58;41.38;;;358.90;1971.20;;;;;;5031360;28;20033;-58
2022/01/03 10:13:53;;;;;;;40.03;29.35;;;358.90;1945.60;;;;;;5030908;28;20567;-60
2022/01/03 10:16:18;;;;;;;27.73;20.83;;;358.70;1971.20;;;;;;5032217;28;20100;-59
2022/01/03 10:18:48;;;;;;;24.08;16.77;;;358.60;1920.00;;;;;;5041041;28;20017;-58
2022/01/03 10:21:45;;;;;;;20.25;14.02;;;358.50;1894.40;;;;;;5041859;28;20021;-58
2022/01/03 10:24:13;;;;;;;14.13;8.85;;;358.60;1920.00;;;;;;5041755;28;20021;-58
2022/01/03 10:26:42;;;;;;;14.52;10.52;;;358.70;1817.60;;;;;;5048938;28;20057;-58
2022/01/03 10:29:19;;;;;;;21.85;14.32;;;358.90;1817.60;;;;;;5051162;28;20493;-59
2022/01/03 10:32:09;;;;;;;32.28;22.63;;;359.10;1817.60;;;;;;5051498;28;20033;-59
2022/01/03 10:34:35;;;;;;;34.78;26.52;;;359.20;1868.80;;;;;;5051341;28;20017;-59
2022/01/03 10:37:11;;;;;;;36.42;25.42;;;359.30;1868.80;;;;;;5047412;28;20494;-57
2022/01/03 10:39:36;;;;;;;34.00;24.42;;;384.30;1843.20;;;;;;5041289;28;20579;-58
2022/01/03 10:42:15;;;;;;;27.25;20.55;;;384.40;1817.60;;;;;;5045090;28;20391;-59
2022/01/03 10:44:41;;;;;;;22.73;17.33;;;384.60;1792.00;;;;;;5049315;28;20041;-57
2022/01/03 10:47:16;;;;;;;28.98;18.67;;;384.70;1792.00;;;;;;5050717;28;20490;-59
2022/01/03 10:49:45;;;;;;;21.88;15.95;;;384.80;1766.40;;;;;;5051043;28;20037;-58
2022/01/03 10:52:18;;;;;;;20.95;16.70;;;384.70;1766.40;;;;;;5050624;28;20112;-58
2022/01/03 10:55:18;;;;;;;20.15;14.82;;;384.50;1766.40;;;;;;5050768;28;20025;-58
2022/01/03 10:57:48;;;;;;;21.17;15.05;;;384.40;1792.00;;;;;;5050928;28;20033;-58
2022/01/03 11:00:31;;;;;;;19.30;13.93;;;384.30;1792.00;;;;;;5050550;28;20043;-58
2022/01/03 11:03:29;;;;;;;19.02;15.10;;;384.30;1792.00;;;;;;5050631;28;20110;-58
2022/01/03 11:06:02;;;;;;;18.10;13.00;;;384.30;1740.80;;;;;;5033630;28;20494;-58
2022/01/03 11:11:31;;;;;;;20.75;13.68;;;384.60;1689.60;;;;;;5030749;28;20480;-59
2022/01/03 11:13:57;;;;;;;460.63;356.15;;;384.60;1664.00;;;;;;5030451;28;20021;-60
2022/01/03 11:16:32;;;;;;;351.30;281.63;;;384.30;1843.20;;;;;;5030339;28;20376;-59
2022/01/03 11:18:57;;;;;;;245.35;202.98;;;384.30;1894.40;;;;;;5030316;28;20422;-58
2022/01/03 11:21:24;;;;;;;229.75;185.20;;;384.60;1894.40;;;;;;5030404;28;20100;-58
2022/01/03 11:24:08;;;;;;;152.63;121.80;;;384.80;1843.20;;;;;;5030241;28;20418;-58
2022/01/03 11:26:46;;;;;;;113.88;87.47;;;409.60;1817.60;;;;;;5030337;28;20398;-58
2022/01/03 11:29:13;;;;;;;74.57;57.25;;;384.90;1766.40;;;;;;5030388;28;20048;-59
2022/01/03 11:31:39;;;;;;;87.38;64.38;;;409.70;1766.40;;;;;;5030089;28;20061;-63
2022/01/03 11:34:07;;;;;;;100.82;72.05;;;410.00;1740.80;;;;;;5030470;28;20094;-66
2022/01/03 11:36:33;;;;;;;109.45;81.25;;;410.20;1740.80;;;;;;5030238;28;20391;-58
2022/01/03 11:39:12;;;;;;;155.75;120.80;;;410.30;1689.60;;;;;;5030287;28;20360;-61
2022/01/03 11:41:40;;;;;;;81.65;56.40;;;410.20;1689.60;;;;;;5030384;28;20029;-58
2022/01/03 11:44:08;;;;;;;111.07;86.38;;;410.00;1638.40;;;;;;5030308;28;20726;-59
2022/01/03 11:46:34;;;;;;;75.63;53.88;;;409.90;1715.20;;;;;;5030307;28;20021;-60
2022/01/03 11:49:00;;;;;;;36.30;21.50;;;409.80;1638.40;;;;;;5029935;28;20051;-61
2022/01/03 11:51:31;;;;;;;20.15;13.48;;;409.70;1612.80;;;;;;5029738;28;20567;-59
2022/01/03 11:53:59;;;;;;;24.92;18.20;;;384.70;1561.60;;;;;;5030146;28;20035;-59
2022/01/03 11:56:26;;;;;;;47.13;36.55;;;384.80;1587.20;;;;;;5030244;28;20084;-58
2022/01/03 12:04:19;;;;;;;18.45;13.07;;;384.90;1587.20;;;;;;5029935;28;20065;-58
2022/01/03 12:06:46;;;;;;;16.80;13.80;;;409.60;1587.20;;;;;;5030064;28;20025;-61
2022/01/03 12:09:16;;;;;;;30.08;20.30;;;384.90;1561.60;;;;;;5029930;28;20025;-59
2022/01/03 12:11:53;;;;;;;40.70;30.40;;;384.90;1561.60;;;;;;5029947;28;20093;-58
2022/01/03 12:14:21;;;;;;;30.40;21.70;;;409.70;1612.80;;;;;;5029616;28;20076;-59
2022/01/03 12:16:47;;;;;;;22.98;13.30;;;409.70;1561.60;;;;;;5033871;28;20479;-58
2022/01/03 12:19:29;;;;;;;30.60;21.17;;;384.90;1536.00;;;;;;5034667;28;20025;-61
2022/01/03 12:21:57;;;;;;;20.40;14.43;;;409.60;1612.80;;;;;;5029780;28;20108;-58
2022/01/03 12:24:26;;;;;;;45.78;32.95;;;384.80;1587.20;;;;;;5029630;28;20030;-59
2022/01/03 12:27:10;;;;;;;49.55;33.78;;;384.80;1612.80;;;;;;5029646;28;20022;-59